sensor_id;sensor_type;location;lat;lon;timestamp;pressure;altitude;pressure_sealevel;temperature;humidity
6347;BME280;3206;42.666;23.600;2022-10-31T00:00:51;95677.28;;;8.53;100.00
6347;BME280;3206;42.666;23.600;2022-10-31T00:03:19;95674.47;;;8.66;100.00
6347;BME280;3206;42.666;23.600;2022-10-31T00:05:48;95675.72;;;8.60;100.00
6347;BME280;3206;42.666;23.600;2022-10-31T00:08:15;95678.16;;;8.23;100.00
6347;BME280;3206;42.666;23.600;2022-10-31T00:10:43;95665.84;;;8.35;100.00
6347;BME280;3206;42.666;23.600;2022-10-31T00:13:11;95678.84;;;8.45;100.00
6347;BME280;3206;42.666;23.600;2022-10-31T00:15:39;95678.22;;;8.48;100.00
6347;BME280;3206;42.666;23.600;2022-10-31T00:18:07;95686.69;;;8.42;100.00
6347;BME280;3206;42.666;23.600;2022-10-31T00:20:35;95681.50;;;8.54;100.00
6347;BME280;3206;42.666;23.600;2022-10-31T00:23:03;95677.59;;;8.51;100.00
6347;BME280;3206;42.666;23.600;2022-10-31T00:25:34;95680.91;;;8.65;100.00
6347;BME280;3206;42.666;23.600;2022-10-31T00:28:01;95675.25;;;8.75;100.00
6347;BME280;3206;42.666;23.600;2022-10-31T00:30:28;95683.06;;;8.38;100.00
6347;BME280;3206;42.666;23.600;2022-10-31T00:32:55;95676.81;;;8.59;100.00
6347;BME280;3206;42.666;23.600;2022-10-31T00:35:21;95667.72;;;8.69;100.00
6347;BME280;3206;42.666;23.600;2022-10-31T00:37:50;95671.31;;;8.56;100.00
6347;BME280;3206;42.666;23.600;2022-10-31T00:40:16;95676.50;;;8.69;100.00
6347;BME280;3206;42.666;23.600;2022-10-31T00:42:43;95675.72;;;8.77;100.00
6347;BME280;3206;42.666;23.600;2022-10-31T00:45:10;95687.31;;;8.81;100.00
6347;BME280;3206;42.666;23.600;2022-10-31T00:47:37;95677.13;;;9.00;100.00
6347;BME280;3206;42.666;23.600;2022-10-31T00:50:04;95673.84;;;9.03;100.00
6347;BME280;3206;42.666;23.600;2022-10-31T00:52:31;95681.03;;;9.03;100.00
6347;BME280;3206;42.666;23.600;2022-10-31T00:54:59;95678.53;;;9.06;100.00
6347;BME280;3206;42.666;23.600;2022-10-31T00:57:26;95629.34;;;8.78;100.00
6347;BME280;3206;42.666;23.600;2022-10-31T00:59:52;95659.25;;;8.41;100.00
6347;BME280;3206;42.666;23.600;2022-10-31T01:02:19;95675.25;;;8.75;100.00
6347;BME280;3206;42.666;23.600;2022-10-31T01:04:46;95674.31;;;8.80;100.00
6347;BME280;3206;42.666;23.600;2022-10-31T01:07:12;95675.88;;;8.81;100.00
6347;BME280;3206;42.666;23.600;2022-10-31T01:09:39;95688.28;;;8.85;100.00
6347;BME280;3206;42.666;23.600;2022-10-31T01:12:07;95682.31;;;8.88;100.00
6347;BME280;3206;42.666;23.600;2022-10-31T01:14:34;95686.25;;;8.82;100.00
6347;BME280;3206;42.666;23.600;2022-10-31T01:17:00;95688.41;;;8.89;100.00
6347;BME280;3206;42.666;23.600;2022-10-31T01:19:28;95690.75;;;8.90;100.00
6347;BME280;3206;42.666;23.600;2022-10-31T01:21:55;95682.00;;;8.90;100.00
6347;BME280;3206;42.666;23.600;2022-10-31T01:24:22;95692.78;;;8.93;100.00
6347;BME280;3206;42.666;23.600;2022-10-31T01:26:48;95691.38;;;9.04;100.00
6347;BME280;3206;42.666;23.600;2022-10-31T01:29:16;95693.25;;;9.12;100.00
6347;BME280;3206;42.666;23.600;2022-10-31T01:31:43;95684.94;;;9.14;100.00
6347;BME280;3206;42.666;23.600;2022-10-31T01:34:13;95687.13;;;9.20;100.00
6347;BME280;3206;42.666;23.600;2022-10-31T01:36:40;95683.66;;;9.20;100.00
6347;BME280;3206;42.666;23.600;2022-10-31T01:39:10;95694.78;;;9.30;100.00
6347;BME280;3206;42.666;23.600;2022-10-31T01:41:38;95696.03;;;9.41;100.00
6347;BME280;3206;42.666;23.600;2022-10-31T01:47:11;95685.31;;;9.58;100.00
6347;BME280;3206;42.666;23.600;2022-10-31T01:49:43;95688.44;;;9.60;100.00
6347;BME280;3206;42.666;23.600;2022-10-31T01:52:14;95679.75;;;9.71;100.00
6347;BME280;3206;42.666;23.600;2022-10-31T01:54:46;95669.31;;;9.58;100.00
6347;BME280;3206;42.666;23.600;2022-10-31T01:57:17;95672.09;;;9.70;100.00
6347;BME280;3206;42.666;23.600;2022-10-31T01:59:47;95685.41;;;9.78;100.00
6347;BME280;3206;42.666;23.600;2022-10-31T02:02:18;95695.44;;;9.81;100.00
6347;BME280;3206;42.666;23.600;2022-10-31T02:04:46;95696.22;;;9.82;100.00
6347;BME280;3206;42.666;23.600;2022-10-31T02:07:16;95688.50;;;9.89;100.00
6347;BME280;3206;42.666;23.600;2022-10-31T02:09:45;95697.41;;;9.93;100.00
6347;BME280;3206;42.666;23.600;2022-10-31T02:12:13;95697.59;;;9.88;100.00
6347;BME280;3206;42.666;23.600;2022-10-31T02:14:40;95698.59;;;9.75;100.00
6347;BME280;3206;42.666;23.600;2022-10-31T02:17:08;95699.06;;;9.77;100.00
6347;BME280;3206;42.666;23.600;2022-10-31T02:19:41;95694.53;;;9.69;100.00
6347;BME280;3206;42.666;23.600;2022-10-31T02:22:14;95693.81;;;9.43;100.00
6347;BME280;3206;42.666;23.600;2022-10-31T02:24:48;95699.94;;;9.43;100.00
6347;BME280;3206;42.666;23.600;2022-10-31T02:27:38;95697.09;;;9.57;100.00
6347;BME280;3206;42.666;23.600;2022-10-31T02:30:12;95698.81;;;9.53;100.00
6347;BME280;3206;42.666;23.600;2022-10-31T02:33:01;95707.56;;;9.62;100.00
6347;BME280;3206;42.666;23.600;2022-10-31T02:35:39;95707.09;;;9.68;100.00
6347;BME280;3206;42.666;23.600;2022-10-31T02:38:14;95704.38;;;9.77;100.00
6347;BME280;3206;42.666;23.600;2022-10-31T02:40:52;95713.22;;;9.69;100.00
6347;BME280;3206;42.666;23.600;2022-10-31T02:43:27;95704.59;;;9.63;100.00
6347;BME280;3206;42.666;23.600;2022-10-31T02:46:01;95704.31;;;9.56;100.00
6347;BME280;3206;42.666;23.600;2022-10-31T02:48:33;95710.84;;;9.67;100.00
6347;BME280;3206;42.666;23.600;2022-10-31T02:51:03;95712.22;;;9.82;100.00
6347;BME280;3206;42.666;23.600;2022-10-31T02:53:32;95705.91;;;9.86;100.00
6347;BME280;3206;42.666;23.600;2022-10-31T02:56:02;95709.84;;;9.89;100.00
6347;BME280;3206;42.666;23.600;2022-10-31T02:58:33;95696.78;;;9.96;100.00
6347;BME280;3206;42.666;23.600;2022-10-31T03:01:31;95716.16;;;9.76;100.00
6347;BME280;3206;42.666;23.600;2022-10-31T03:04:37;95712.22;;;9.82;100.00
6347;BME280;3206;42.666;23.600;2022-10-31T03:07:11;95713.88;;;9.95;100.00
6347;BME280;3206;42.666;23.600;2022-10-31T03:09:51;95720.47;;;9.97;100.00
6347;BME280;3206;42.666;23.600;2022-10-31T03:12:26;95717.50;;;9.99;100.00
6347;BME280;3206;42.666;23.600;2022-10-31T03:15:02;95717.50;;;9.99;100.00
6347;BME280;3206;42.666;23.600;2022-10-31T03:17:36;95711.81;;;10.09;100.00
6347;BME280;3206;42.666;23.600;2022-10-31T03:20:07;95711.38;;;10.07;100.00
6347;BME280;3206;42.666;23.600;2022-10-31T03:22:36;95718.22;;;10.16;100.00
6347;BME280;3206;42.666;23.600;2022-10-31T03:25:07;95720.84;;;10.25;100.00
6347;BME280;3206;42.666;23.600;2022-10-31T03:27:36;95728.06;;;10.33;100.00
6347;BME280;3206;42.666;23.600;2022-10-31T03:30:05;95726.56;;;10.44;100.00
6347;BME280;3206;42.666;23.600;2022-10-31T03:32:38;95730.66;;;10.41;100.00
6347;BME280;3206;42.666;23.600;2022-10-31T03:35:08;95721.31;;;10.56;100.00
6347;BME280;3206;42.666;23.600;2022-10-31T03:37:37;95736.22;;;10.57;100.00
6347;BME280;3206;42.666;23.600;2022-10-31T03:40:08;95732.13;;;10.59;100.00
6347;BME280;3206;42.666;23.600;2022-10-31T03:42:39;95733.84;;;10.64;100.00
6347;BME280;3206;42.666;23.600;2022-10-31T03:45:11;95728.31;;;10.69;100.00
6347;BME280;3206;42.666;23.600;2022-10-31T03:47:39;95733.84;;;10.64;100.00
6347;BME280;3206;42.666;23.600;2022-10-31T03:50:10;95727.84;;;10.67;100.00
6347;BME280;3206;42.666;23.600;2022-10-31T03:52:43;95724.72;;;10.65;100.00
6347;BME280;3206;42.666;23.600;2022-10-31T03:55:17;95730.38;;;10.63;100.00
6347;BME280;3206;42.666;23.600;2022-10-31T03:57:51;95729.41;;;10.68;100.00
6347;BME280;3206;42.666;23.600;2022-10-31T04:00:19;95733.00;;;10.72;100.00
6347;BME280;3206;42.666;23.600;2022-10-31T04:02:51;95738.34;;;10.72;100.00
6347;BME280;3206;42.666;23.600;2022-10-31T04:05:21;95745.03;;;10.78;100.00
6347;BME280;3206;42.666;23.600;2022-10-31T04:07:51;95745.53;;;10.80;100.00
6347;BME280;3206;42.666;23.600;2022-10-31T04:10:21;95740.28;;;10.83;100.00
6347;BME280;3206;42.666;23.600;2022-10-31T04:12:53;95749.09;;;10.84;100.00
6347;BME280;3206;42.666;23.600;2022-10-31T04:15:23;95746.69;;;10.91;100.00
6347;BME280;3206;42.666;23.600;2022-10-31T04:17:54;95752.53;;;10.84;100.00
6347;BME280;3206;42.666;23.600;2022-10-31T04:20:31;95755.09;;;10.23;100.00
6347;BME280;3206;42.666;23.600;2022-10-31T04:22:59;95758.94;;;10.05;100.00
6347;BME280;3206;42.666;23.600;2022-10-31T04:25:25;95758.22;;;10.25;100.00
6347;BME280;3206;42.666;23.600;2022-10-31T04:27:52;95761.09;;;10.20;100.00
6347;BME280;3206;42.666;23.600;2022-10-31T04:30:19;95755.44;;;10.13;100.00
6347;BME280;3206;42.666;23.600;2022-10-31T04:32:45;95761.25;;;10.15;100.00
6347;BME280;3206;42.666;23.600;2022-10-31T04:35:12;95774.16;;;10.04;100.00
6347;BME280;3206;42.666;23.600;2022-10-31T04:37:40;95766.00;;;10.01;100.00
6347;BME280;3206;42.666;23.600;2022-10-31T04:40:08;95759.97;;;9.58;100.00
6347;BME280;3206;42.666;23.600;2022-10-31T04:42:35;95763.28;;;9.55;100.00
6347;BME280;3206;42.666;23.600;2022-10-31T04:45:01;95764.22;;;9.59;100.00
6347;BME280;3206;42.666;23.600;2022-10-31T04:47:30;95769.88;;;9.57;100.00
6347;BME280;3206;42.666;23.600;2022-10-31T04:49:57;95765.94;;;9.55;100.00
6347;BME280;3206;42.666;23.600;2022-10-31T04:52:23;95768.47;;;9.26;100.00
6347;BME280;3206;42.666;23.600;2022-10-31T04:54:51;95771.78;;;9.40;100.00
6347;BME280;3206;42.666;23.600;2022-10-31T04:57:18;95770.66;;;9.58;100.00
6347;BME280;3206;42.666;23.600;2022-10-31T04:59:45;95770.34;;;9.59;100.00
6347;BME280;3206;42.666;23.600;2022-10-31T05:02:11;95781.75;;;9.68;100.00
6347;BME280;3206;42.666;23.600;2022-10-31T05:04:38;95779.06;;;9.77;100.00
6347;BME280;3206;42.666;23.600;2022-10-31T05:07:05;95773.41;;;9.87;100.00
6347;BME280;3206;42.666;23.600;2022-10-31T05:09:31;95778.09;;;9.90;100.00
6347;BME280;3206;42.666;23.600;2022-10-31T05:11:59;95774.66;;;9.98;100.00
6347;BME280;3206;42.666;23.600;2022-10-31T05:14:26;95787.84;;;10.03;100.00
6347;BME280;3206;42.666;23.600;2022-10-31T05:16:52;95778.06;;;10.07;100.00
6347;BME280;3206;42.666;23.600;2022-10-31T05:19:19;95784.97;;;10.08;100.00
6347;BME280;3206;42.666;23.600;2022-10-31T05:21:45;95793.91;;;10.12;100.00
6347;BME280;3206;42.666;23.600;2022-10-31T05:24:12;95795.81;;;10.11;100.00
6347;BME280;3206;42.666;23.600;2022-10-31T05:26:39;95796.56;;;10.12;100.00
6347;BME280;3206;42.666;23.600;2022-10-31T05:29:07;95800.34;;;10.11;100.00
6347;BME280;3206;42.666;23.600;2022-10-31T05:31:33;95798.63;;;10.15;100.00
6347;BME280;3206;42.666;23.600;2022-10-31T05:34:00;95804.25;;;10.22;100.00
6347;BME280;3206;42.666;23.600;2022-10-31T05:36:26;95813.53;;;10.16;100.00
6347;BME280;3206;42.666;23.600;2022-10-31T05:38:53;95810.41;;;10.14;100.00
6347;BME280;3206;42.666;23.600;2022-10-31T05:41:20;95814.94;;;10.22;100.00
6347;BME280;3206;42.666;23.600;2022-10-31T05:43:46;95819.81;;;10.20;100.00
6347;BME280;3206;42.666;23.600;2022-10-31T05:46:14;95811.91;;;10.32;100.00
6347;BME280;3206;42.666;23.600;2022-10-31T05:48:41;95810.97;;;10.28;100.00
6347;BME280;3206;42.666;23.600;2022-10-31T05:51:07;95817.81;;;10.46;100.00
6347;BME280;3206;42.666;23.600;2022-10-31T05:53:34;95820.72;;;10.61;100.00
6347;BME280;3206;42.666;23.600;2022-10-31T05:56:01;95816.31;;;10.65;100.00
6347;BME280;3206;42.666;23.600;2022-10-31T05:58:27;95824.00;;;10.67;100.00
6347;BME280;3206;42.666;23.600;2022-10-31T06:00:54;95824.47;;;10.69;100.00
6347;BME280;3206;42.666;23.600;2022-10-31T06:03:22;95818.16;;;10.73;100.00
6347;BME280;3206;42.666;23.600;2022-10-31T06:05:48;95828.31;;;10.88;100.00
6347;BME280;3206;42.666;23.600;2022-10-31T06:08:15;95836.44;;;10.92;100.00
6347;BME280;3206;42.666;23.600;2022-10-31T06:10:42;95839.72;;;10.97;100.00
6347;BME280;3206;42.666;23.600;2022-10-31T06:13:09;95840.50;;;10.98;100.00
6347;BME280;3206;42.666;23.600;2022-10-31T06:15:35;95855.88;;;11.01;100.00
6347;BME280;3206;42.666;23.600;2022-10-31T06:18:04;95854.59;;;11.07;100.00
6347;BME280;3206;42.666;23.600;2022-10-31T06:20:32;95853.31;;;11.13;100.00
6347;BME280;3206;42.666;23.600;2022-10-31T06:22:59;95854.22;;;11.17;100.00
6347;BME280;3206;42.666;23.600;2022-10-31T06:25:27;95863.25;;;11.32;100.00
6347;BME280;3206;42.666;23.600;2022-10-31T06:27:54;95867.63;;;11.37;100.00
6347;BME280;3206;42.666;23.600;2022-10-31T06:30:21;95865.72;;;11.37;100.00
6347;BME280;3206;42.666;23.600;2022-10-31T06:32:47;95849.81;;;11.41;100.00
6347;BME280;3206;42.666;23.600;2022-10-31T06:35:15;95862.28;;;11.57;100.00
6347;BME280;3206;42.666;23.600;2022-10-31T06:37:43;95866.13;;;11.68;100.00
6347;BME280;3206;42.666;23.600;2022-10-31T06:40:16;95874.03;;;11.85;100.00
6347;BME280;3206;42.666;23.600;2022-10-31T06:42:43;95863.75;;;12.08;100.00
6347;BME280;3206;42.666;23.600;2022-10-31T06:45:09;95871.41;;;11.97;100.00
6347;BME280;3206;42.666;23.600;2022-10-31T06:47:36;95868.28;;;12.07;100.00
6347;BME280;3206;42.666;23.600;2022-10-31T06:50:03;95871.03;;;12.19;100.00
6347;BME280;3206;42.666;23.600;2022-10-31T06:52:30;95878.50;;;12.26;100.00
6347;BME280;3206;42.666;23.600;2022-10-31T06:54:58;95874.69;;;12.15;100.00
6347;BME280;3206;42.666;23.600;2022-10-31T06:57:24;95870.34;;;12.22;100.00
6347;BME280;3206;42.666;23.600;2022-10-31T06:59:51;95879.69;;;12.49;100.00
6347;BME280;3206;42.666;23.600;2022-10-31T07:02:18;95879.16;;;12.67;100.00
6347;BME280;3206;42.666;23.600;2022-10-31T07:04:45;95881.41;;;12.89;100.00
6347;BME280;3206;42.666;23.600;2022-10-31T07:07:12;95871.94;;;13.27;100.00
6347;BME280;3206;42.666;23.600;2022-10-31T07:09:38;95875.22;;;14.00;100.00
6347;BME280;3206;42.666;23.600;2022-10-31T07:12:06;95869.66;;;13.93;100.00
6347;BME280;3206;42.666;23.600;2022-10-31T07:14:33;95858.88;;;13.65;100.00
6347;BME280;3206;42.666;23.600;2022-10-31T07:17:00;95864.19;;;13.38;100.00
6347;BME280;3206;42.666;23.600;2022-10-31T07:19:26;95860.81;;;13.53;100.00
6347;BME280;3206;42.666;23.600;2022-10-31T07:21:53;95865.50;;;13.95;100.00
6347;BME280;3206;42.666;23.600;2022-10-31T07:24:20;95856.03;;;15.52;100.00
6347;BME280;3206;42.666;23.600;2022-10-31T07:26:47;95867.59;;;17.15;100.00
6347;BME280;3206;42.666;23.600;2022-10-31T07:29:15;95861.69;;;16.01;100.00
6347;BME280;3206;42.666;23.600;2022-10-31T07:31:42;95860.13;;;16.38;100.00
6347;BME280;3206;42.666;23.600;2022-10-31T07:34:09;95860.44;;;16.78;100.00
6347;BME280;3206;42.666;23.600;2022-10-31T07:36:36;95872.91;;;16.63;100.00
6347;BME280;3206;42.666;23.600;2022-10-31T07:39:02;95863.03;;;16.10;100.00
6347;BME280;3206;42.666;23.600;2022-10-31T07:41:30;95873.22;;;15.63;100.00
6347;BME280;3206;42.666;23.600;2022-10-31T07:43:57;95878.22;;;14.69;100.00
6347;BME280;3206;42.666;23.600;2022-10-31T07:46:25;95872.41;;;14.67;100.00
6347;BME280;3206;42.666;23.600;2022-10-31T07:48:52;95863.84;;;14.92;100.00
6347;BME280;3206;42.666;23.600;2022-10-31T07:51:18;95855.22;;;15.86;100.00
6347;BME280;3206;42.666;23.600;2022-10-31T07:53:45;95861.94;;;16.34;100.00
6347;BME280;3206;42.666;23.600;2022-10-31T07:56:12;95854.88;;;15.88;100.00
6347;BME280;3206;42.666;23.600;2022-10-31T07:58:38;95865.25;;;15.70;100.00
6347;BME280;3206;42.666;23.600;2022-10-31T08:01:05;95865.00;;;15.75;100.00
6347;BME280;3206;42.666;23.600;2022-10-31T08:03:33;95867.03;;;15.63;100.00
6347;BME280;3206;42.666;23.600;2022-10-31T08:06:00;95855.19;;;15.67;100.00
6347;BME280;3206;42.666;23.600;2022-10-31T08:08:26;95858.59;;;15.64;100.00
6347;BME280;3206;42.666;23.600;2022-10-31T08:10:54;95853.44;;;15.56;100.00
6347;BME280;3206;42.666;23.600;2022-10-31T08:13:21;95863.69;;;15.50;100.00
6347;BME280;3206;42.666;23.600;2022-10-31T08:15:47;95858.38;;;15.54;100.00
6347;BME280;3206;42.666;23.600;2022-10-31T08:18:16;95855.59;;;15.50;100.00
6347;BME280;3206;42.666;23.600;2022-10-31T08:20:44;95847.00;;;15.60;100.00
6347;BME280;3206;42.666;23.600;2022-10-31T08:23:11;95856.06;;;15.71;100.00
6347;BME280;3206;42.666;23.600;2022-10-31T08:25:39;95850.13;;;15.81;100.00
6347;BME280;3206;42.666;23.600;2022-10-31T08:28:08;95842.25;;;15.92;100.00
6347;BME280;3206;42.666;23.600;2022-10-31T08:30:36;95846.19;;;15.98;100.00
6347;BME280;3206;42.666;23.600;2022-10-31T08:33:05;95844.59;;;15.93;100.00
6347;BME280;3206;42.666;23.600;2022-10-31T08:35:32;95849.47;;;16.07;100.00
6347;BME280;3206;42.666;23.600;2022-10-31T08:38:01;95854.50;;;16.27;100.00
6347;BME280;3206;42.666;23.600;2022-10-31T08:40:30;95851.09;;;16.30;100.00
6347;BME280;3206;42.666;23.600;2022-10-31T08:43:02;95853.34;;;16.47;100.00
6347;BME280;3206;42.666;23.600;2022-10-31T08:45:30;95856.78;;;16.67;100.00
6347;BME280;3206;42.666;23.600;2022-10-31T08:47:57;95842.56;;;16.70;100.00
6347;BME280;3206;42.666;23.600;2022-10-31T08:50:25;95859.91;;;16.91;100.00
6347;BME280;3206;42.666;23.600;2022-10-31T08:52:52;95862.59;;;16.91;100.00
6347;BME280;3206;42.666;23.600;2022-10-31T08:55:20;95854.50;;;17.13;100.00
6347;BME280;3206;42.666;23.600;2022-10-31T08:57:47;95852.19;;;17.15;100.00
6347;BME280;3206;42.666;23.600;2022-10-31T09:00:14;95844.78;;;17.35;100.00
6347;BME280;3206;42.666;23.600;2022-10-31T09:02:41;95846.81;;;17.41;100.00
6347;BME280;3206;42.666;23.600;2022-10-31T09:05:08;95850.19;;;17.61;100.00
6347;BME280;3206;42.666;23.600;2022-10-31T09:07:34;95850.88;;;17.84;100.00
6347;BME280;3206;42.666;23.600;2022-10-31T09:10:01;95847.59;;;17.97;100.00
6347;BME280;3206;42.666;23.600;2022-10-31T09:12:29;95852.22;;;18.30;100.00
6347;BME280;3206;42.666;23.600;2022-10-31T09:14:56;95847.88;;;18.55;100.00
6347;BME280;3206;42.666;23.600;2022-10-31T09:17:22;95844.13;;;18.66;100.00
6347;BME280;3206;42.666;23.600;2022-10-31T09:19:49;95848.06;;;18.76;100.00
6347;BME280;3206;42.666;23.600;2022-10-31T09:22:16;95858.63;;;18.88;100.00
6347;BME280;3206;42.666;23.600;2022-10-31T09:24:42;95845.19;;;19.01;100.00
6347;BME280;3206;42.666;23.600;2022-10-31T09:27:09;95853.97;;;19.31;100.00
6347;BME280;3206;42.666;23.600;2022-10-31T09:29:37;95852.59;;;19.58;100.00
6347;BME280;3206;42.666;23.600;2022-10-31T09:32:04;95842.13;;;19.53;100.00
6347;BME280;3206;42.666;23.600;2022-10-31T09:34:31;95846.53;;;19.79;100.00
6347;BME280;3206;42.666;23.600;2022-10-31T09:36:57;95841.63;;;20.09;100.00
6347;BME280;3206;42.666;23.600;2022-10-31T09:39:24;95833.22;;;20.35;100.00
6347;BME280;3206;42.666;23.600;2022-10-31T09:42:03;95843.31;;;20.41;96.70
6347;BME280;3206;42.666;23.600;2022-10-31T09:44:43;95833.66;;;20.61;93.89
6347;BME280;3206;42.666;23.600;2022-10-31T09:47:21;95832.53;;;20.76;96.74
6347;BME280;3206;42.666;23.600;2022-10-31T09:50:01;95831.34;;;20.60;94.02
6347;BME280;3206;42.666;23.600;2022-10-31T09:52:33;95832.47;;;20.41;93.44
6347;BME280;3206;42.666;23.600;2022-10-31T09:55:04;95826.59;;;20.32;95.79
6347;BME280;3206;42.666;23.600;2022-10-31T09:57:34;95824.28;;;20.34;96.17
6347;BME280;3206;42.666;23.600;2022-10-31T10:00:09;95828.97;;;20.37;99.00
6347;BME280;3206;42.666;23.600;2022-10-31T10:02:44;95819.66;;;20.38;93.84
6347;BME280;3206;42.666;23.600;2022-10-31T10:05:16;95818.13;;;20.37;96.27
6347;BME280;3206;42.666;23.600;2022-10-31T10:07:54;95794.06;;;20.46;93.40
6347;BME280;3206;42.666;23.600;2022-10-31T10:10:26;95810.78;;;20.55;92.43
6347;BME280;3206;42.666;23.600;2022-10-31T10:13:14;95803.81;;;20.68;93.29
6347;BME280;3206;42.666;23.600;2022-10-31T10:16:03;95810.41;;;20.74;91.12
6347;BME280;3206;42.666;23.600;2022-10-31T10:18:41;95806.19;;;20.94;88.09
6347;BME280;3206;42.666;23.600;2022-10-31T10:21:20;95804.25;;;21.05;84.49
6347;BME280;3206;42.666;23.600;2022-10-31T10:24:03;95763.91;;;20.86;84.12
6347;BME280;3206;42.666;23.600;2022-10-31T10:26:37;95801.91;;;20.90;85.59
6347;BME280;3206;42.666;23.600;2022-10-31T10:29:18;95793.31;;;20.74;87.83
6347;BME280;3206;42.666;23.600;2022-10-31T10:31:52;95786.38;;;20.69;91.57
6347;BME280;3206;42.666;23.600;2022-10-31T10:34:27;95793.38;;;20.98;82.92
6347;BME280;3206;42.666;23.600;2022-10-31T10:36:58;95785.63;;;21.07;81.56
6347;BME280;3206;42.666;23.600;2022-10-31T10:39:32;95777.03;;;21.26;82.04
6347;BME280;3206;42.666;23.600;2022-10-31T10:42:01;95778.19;;;21.32;77.10
6347;BME280;3206;42.666;23.600;2022-10-31T10:44:51;95778.59;;;21.23;77.10
6347;BME280;3206;42.666;23.600;2022-10-31T10:47:42;95759.97;;;21.15;77.98
6347;BME280;3206;42.666;23.600;2022-10-31T10:50:14;95761.50;;;21.33;77.96
6347;BME280;3206;42.666;23.600;2022-10-31T10:52:49;95765.97;;;21.96;74.75
6347;BME280;3206;42.666;23.600;2022-10-31T10:55:26;95760.59;;;23.08;68.35
6347;BME280;3206;42.666;23.600;2022-10-31T10:57:56;95764.28;;;24.62;65.14
6347;BME280;3206;42.666;23.600;2022-10-31T11:00:26;95760.34;;;25.35;58.67
6347;BME280;3206;42.666;23.600;2022-10-31T11:02:55;95761.16;;;25.09;57.75
6347;BME280;3206;42.666;23.600;2022-10-31T11:05:28;95756.56;;;25.02;58.43
6347;BME280;3206;42.666;23.600;2022-10-31T11:07:56;95762.56;;;24.71;57.59
6347;BME280;3206;42.666;23.600;2022-10-31T11:10:23;95749.03;;;24.34;59.40
6347;BME280;3206;42.666;23.600;2022-10-31T11:13:17;95747.16;;;24.01;60.04
6347;BME280;3206;42.666;23.600;2022-10-31T11:15:56;95741.44;;;23.55;61.54
6347;BME280;3206;42.666;23.600;2022-10-31T11:18:29;95734.66;;;23.33;61.89
6347;BME280;3206;42.666;23.600;2022-10-31T11:20:58;95726.22;;;23.21;60.93
6347;BME280;3206;42.666;23.600;2022-10-31T11:23:26;95736.25;;;23.31;62.12
6347;BME280;3206;42.666;23.600;2022-10-31T11:25:56;95712.28;;;23.15;62.29
6347;BME280;3206;42.666;23.600;2022-10-31T11:28:23;95721.59;;;23.14;61.66
6347;BME280;3206;42.666;23.600;2022-10-31T11:30:53;95723.09;;;23.22;62.80
6347;BME280;3206;42.666;23.600;2022-10-31T11:33:28;95712.09;;;23.29;62.11
6347;BME280;3206;42.666;23.600;2022-10-31T11:35:56;95719.78;;;23.38;61.80
6347;BME280;3206;42.666;23.600;2022-10-31T11:38:26;95715.50;;;23.40;62.09
6347;BME280;3206;42.666;23.600;2022-10-31T11:40:58;95711.44;;;23.55;61.17
6347;BME280;3206;42.666;23.600;2022-10-31T11:43:26;95705.16;;;23.58;62.28
6347;BME280;3206;42.666;23.600;2022-10-31T11:45:53;95708.56;;;23.66;60.26
6347;BME280;3206;42.666;23.600;2022-10-31T11:48:22;95702.94;;;23.83;59.16
6347;BME280;3206;42.666;23.600;2022-10-31T11:50:52;95703.19;;;23.92;58.84
6347;BME280;3206;42.666;23.600;2022-10-31T11:53:27;95704.31;;;23.98;58.09
6347;BME280;3206;42.666;23.600;2022-10-31T11:56:04;95698.22;;;24.14;58.14
6347;BME280;3206;42.666;23.600;2022-10-31T11:58:31;95700.03;;;24.24;56.92
6347;BME280;3206;42.666;23.600;2022-10-31T12:00:58;95688.19;;;24.34;56.41
6347;BME280;3206;42.666;23.600;2022-10-31T12:03:43;95696.69;;;24.39;56.75
6347;BME280;3206;42.666;23.600;2022-10-31T12:06:19;95693.72;;;24.30;56.05
6347;BME280;3206;42.666;23.600;2022-10-31T12:08:47;95693.94;;;24.39;56.34
6347;BME280;3206;42.666;23.600;2022-10-31T12:11:27;95700.03;;;24.50;55.59
6347;BME280;3206;42.666;23.600;2022-10-31T12:14:08;95698.75;;;24.58;55.97
6347;BME280;3206;42.666;23.600;2022-10-31T12:16:42;95702.25;;;24.32;56.90
6347;BME280;3206;42.666;23.600;2022-10-31T12:19:18;95697.38;;;24.43;55.48
6347;BME280;3206;42.666;23.600;2022-10-31T12:21:56;95698.03;;;24.01;55.57
6347;BME280;3206;42.666;23.600;2022-10-31T12:24:56;95702.34;;;24.25;56.50
6347;BME280;3206;42.666;23.600;2022-10-31T12:27:35;95689.09;;;24.50;56.13
6347;BME280;3206;42.666;23.600;2022-10-31T12:30:19;95700.06;;;24.73;55.01
6347;BME280;3206;42.666;23.600;2022-10-31T12:33:16;95686.06;;;24.71;55.20
6347;BME280;3206;42.666;23.600;2022-10-31T12:35:54;95698.09;;;24.97;55.91
6347;BME280;3206;42.666;23.600;2022-10-31T12:38:38;95694.84;;;25.05;55.57
6347;BME280;3206;42.666;23.600;2022-10-31T12:41:21;95692.66;;;25.39;54.37
6347;BME280;3206;42.666;23.600;2022-10-31T12:43:56;95684.81;;;25.80;53.39
6347;BME280;3206;42.666;23.600;2022-10-31T12:46:32;95693.47;;;25.98;51.23
6347;BME280;3206;42.666;23.600;2022-10-31T12:49:42;95700.09;;;26.52;50.73
6347;BME280;3206;42.666;23.600;2022-10-31T12:52:23;95694.16;;;27.01;49.60
6347;BME280;3206;42.666;23.600;2022-10-31T12:55:09;95668.94;;;27.79;47.36
6347;BME280;3206;42.666;23.600;2022-10-31T12:57:39;95684.75;;;28.28;46.24
6347;BME280;3206;42.666;23.600;2022-10-31T13:00:12;95688.34;;;28.13;45.92
6347;BME280;3206;42.666;23.600;2022-10-31T13:02:48;95683.06;;;27.93;45.81
6347;BME280;3206;42.666;23.600;2022-10-31T13:05:22;95682.69;;;27.91;45.22
6347;BME280;3206;42.666;23.600;2022-10-31T13:07:55;95688.09;;;28.07;46.33
6347;BME280;3206;42.666;23.600;2022-10-31T13:10:29;95678.31;;;28.06;45.72
6347;BME280;3206;42.666;23.600;2022-10-31T13:13:03;95679.25;;;28.28;45.77
6347;BME280;3206;42.666;23.600;2022-10-31T13:15:38;95675.28;;;28.29;45.91
6347;BME280;3206;42.666;23.600;2022-10-31T13:18:17;95686.81;;;28.24;43.87
6347;BME280;3206;42.666;23.600;2022-10-31T13:20:47;95673.63;;;28.19;43.16
6347;BME280;3206;42.666;23.600;2022-10-31T13:23:21;95674.75;;;28.47;42.64
6347;BME280;3206;42.666;23.600;2022-10-31T13:25:54;95685.41;;;28.32;42.19